sensor_id;sensor_type;location;lat;lon;timestamp;pressure;altitude;pressure_sealevel;temperature;humidity
43804;BME280;29430;52.924;-2.388;2023-07-31T00:02:59;98123.63;;;16.04;100.00
43804;BME280;29430;52.924;-2.388;2023-07-31T00:07:50;98109.66;;;16.06;100.00
43804;BME280;29430;52.924;-2.388;2023-07-31T00:12:44;98094.06;;;16.06;100.00
43804;BME280;29430;52.924;-2.388;2023-07-31T00:17:37;98094.59;;;16.08;100.00
43804;BME280;29430;52.924;-2.388;2023-07-31T00:22:28;98099.53;;;16.06;100.00
43804;BME280;29430;52.924;-2.388;2023-07-31T00:27:20;98093.53;;;16.04;100.00
43804;BME280;29430;52.924;-2.388;2023-07-31T00:32:12;98089.72;;;16.05;100.00
43804;BME280;29430;52.924;-2.388;2023-07-31T00:37:04;98076.84;;;16.06;100.00
43804;BME280;29430;52.924;-2.388;2023-07-31T00:41:56;98061.47;;;16.10;100.00
43804;BME280;29430;52.924;-2.388;2023-07-31T00:46:48;98055.16;;;16.09;100.00
43804;BME280;29430;52.924;-2.388;2023-07-31T00:51:40;98056.00;;;16.10;100.00
43804;BME280;29430;52.924;-2.388;2023-07-31T00:56:32;98042.53;;;16.14;100.00
43804;BME280;29430;52.924;-2.388;2023-07-31T01:01:24;98039.50;;;16.15;100.00
43804;BME280;29430;52.924;-2.388;2023-07-31T01:11:24;98028.88;;;16.14;100.00
43804;BME280;29430;52.924;-2.388;2023-07-31T01:16:17;98023.09;;;16.15;100.00
43804;BME280;29430;52.924;-2.388;2023-07-31T01:26:30;98010.22;;;16.16;100.00
43804;BME280;29430;52.924;-2.388;2023-07-31T01:31:25;98008.84;;;16.18;100.00
43804;BME280;29430;52.924;-2.388;2023-07-31T01:36:17;98007.72;;;16.19;100.00
43804;BME280;29430;52.924;-2.388;2023-07-31T01:41:09;97989.69;;;16.18;100.00
43804;BME280;29430;52.924;-2.388;2023-07-31T01:46:01;97991.31;;;16.19;100.00
43804;BME280;29430;52.924;-2.388;2023-07-31T01:50:52;97983.91;;;16.20;100.00
43804;BME280;29430;52.924;-2.388;2023-07-31T01:55:44;97977.34;;;16.21;100.00
43804;BME280;29430;52.924;-2.388;2023-07-31T02:00:36;97966.69;;;16.19;100.00
43804;BME280;29430;52.924;-2.388;2023-07-31T02:05:28;97974.91;;;16.19;100.00
43804;BME280;29430;52.924;-2.388;2023-07-31T02:10:19;97987.44;;;16.20;100.00
43804;BME280;29430;52.924;-2.388;2023-07-31T02:15:11;97983.91;;;16.20;100.00
43804;BME280;29430;52.924;-2.388;2023-07-31T02:20:03;97976.50;;;16.20;100.00
43804;BME280;29430;52.924;-2.388;2023-07-31T02:24:55;97959.59;;;16.18;100.00
43804;BME280;29430;52.924;-2.388;2023-07-31T02:29:47;97964.47;;;16.21;100.00
43804;BME280;29430;52.924;-2.388;2023-07-31T02:34:38;97949.69;;;16.22;100.00
43804;BME280;29430;52.924;-2.388;2023-07-31T02:39:30;97950.19;;;16.24;100.00
43804;BME280;29430;52.924;-2.388;2023-07-31T02:44:22;97951.53;;;16.27;100.00
43804;BME280;29430;52.924;-2.388;2023-07-31T02:49:14;97963.47;;;16.31;100.00
43804;BME280;29430;52.924;-2.388;2023-07-31T02:54:05;97956.09;;;16.32;100.00
43804;BME280;29430;52.924;-2.388;2023-07-31T02:58:57;97960.16;;;16.34;100.00
43804;BME280;29430;52.924;-2.388;2023-07-31T03:03:49;97944.56;;;16.35;100.00
43804;BME280;29430;52.924;-2.388;2023-07-31T03:08:40;97948.91;;;16.36;100.00
43804;BME280;29430;52.924;-2.388;2023-07-31T03:13:32;97947.50;;;16.38;100.00
43804;BME280;29430;52.924;-2.388;2023-07-31T03:18:24;97959.78;;;16.41;100.00
43804;BME280;29430;52.924;-2.388;2023-07-31T03:23:15;97964.41;;;16.40;100.00
43804;BME280;29430;52.924;-2.388;2023-07-31T03:28:07;97955.09;;;16.41;100.00
43804;BME280;29430;52.924;-2.388;2023-07-31T03:32:59;97944.16;;;16.41;100.00
43804;BME280;29430;52.924;-2.388;2023-07-31T03:37:51;97944.75;;;16.38;100.00
43804;BME280;29430;52.924;-2.388;2023-07-31T03:42:42;97937.66;;;16.37;100.00
43804;BME280;29430;52.924;-2.388;2023-07-31T03:47:34;97945.88;;;16.37;100.00
43804;BME280;29430;52.924;-2.388;2023-07-31T03:52:26;97945.56;;;16.39;100.00
43804;BME280;29430;52.924;-2.388;2023-07-31T03:57:18;97949.94;;;16.40;100.00
43804;BME280;29430;52.924;-2.388;2023-07-31T04:02:09;97948.00;;;16.40;100.00
43804;BME280;29430;52.924;-2.388;2023-07-31T04:07:01;97971.03;;;16.39;100.00
43804;BME280;29430;52.924;-2.388;2023-07-31T04:11:53;97971.81;;;16.40;100.00
43804;BME280;29430;52.924;-2.388;2023-07-31T04:16:44;97961.78;;;16.35;100.00
43804;BME280;29430;52.924;-2.388;2023-07-31T04:21:36;97962.97;;;16.29;100.00
43804;BME280;29430;52.924;-2.388;2023-07-31T04:26:28;97964.38;;;16.26;100.00
43804;BME280;29430;52.924;-2.388;2023-07-31T04:31:19;97960.09;;;16.20;100.00
43804;BME280;29430;52.924;-2.388;2023-07-31T04:36:11;97963.97;;;16.19;100.00
43804;BME280;29430;52.924;-2.388;2023-07-31T04:41:03;97956.34;;;16.16;100.00
43804;BME280;29430;52.924;-2.388;2023-07-31T04:45:57;97962.94;;;16.15;100.00
43804;BME280;29430;52.924;-2.388;2023-07-31T04:50:49;97972.53;;;16.13;100.00
43804;BME280;29430;52.924;-2.388;2023-07-31T04:55:41;97975.84;;;16.09;100.00
43804;BME280;29430;52.924;-2.388;2023-07-31T05:00:33;97984.34;;;16.08;100.00
43804;BME280;29430;52.924;-2.388;2023-07-31T05:05:24;97982.75;;;16.07;100.00
43804;BME280;29430;52.924;-2.388;2023-07-31T05:10:16;97981.13;;;16.06;100.00
43804;BME280;29430;52.924;-2.388;2023-07-31T05:15:08;97976.75;;;16.05;100.00
43804;BME280;29430;52.924;-2.388;2023-07-31T05:20:00;97984.44;;;16.03;100.00
43804;BME280;29430;52.924;-2.388;2023-07-31T05:24:52;97977.03;;;16.03;100.00
43804;BME280;29430;52.924;-2.388;2023-07-31T05:29:45;97969.97;;;16.02;100.00
43804;BME280;29430;52.924;-2.388;2023-07-31T05:34:37;97960.13;;;16.01;100.00
43804;BME280;29430;52.924;-2.388;2023-07-31T05:39:29;97954.34;;;16.03;100.00
43804;BME280;29430;52.924;-2.388;2023-07-31T05:44:20;97949.63;;;16.08;100.00
43804;BME280;29430;52.924;-2.388;2023-07-31T05:49:12;97938.91;;;16.12;100.00
43804;BME280;29430;52.924;-2.388;2023-07-31T05:54:04;97951.09;;;16.20;100.00
43804;BME280;29430;52.924;-2.388;2023-07-31T05:58:55;97952.63;;;16.26;100.00
43804;BME280;29430;52.924;-2.388;2023-07-31T06:03:48;97948.69;;;16.32;100.00
43804;BME280;29430;52.924;-2.388;2023-07-31T06:08:40;97950.84;;;16.35;100.00
43804;BME280;29430;52.924;-2.388;2023-07-31T06:13:32;97941.59;;;16.31;100.00
43804;BME280;29430;52.924;-2.388;2023-07-31T06:18:23;97952.03;;;16.29;100.00
43804;BME280;29430;52.924;-2.388;2023-07-31T06:23:15;97960.25;;;16.29;100.00
43804;BME280;29430;52.924;-2.388;2023-07-31T06:28:10;97970.97;;;16.25;100.00
43804;BME280;29430;52.924;-2.388;2023-07-31T06:33:01;97976.44;;;16.25;100.00
43804;BME280;29430;52.924;-2.388;2023-07-31T06:37:53;97982.22;;;16.24;100.00
43804;BME280;29430;52.924;-2.388;2023-07-31T06:42:45;97992.13;;;16.20;100.00
43804;BME280;29430;52.924;-2.388;2023-07-31T06:47:37;97980.69;;;16.18;100.00
43804;BME280;29430;52.924;-2.388;2023-07-31T06:52:28;97972.53;;;16.13;100.00
43804;BME280;29430;52.924;-2.388;2023-07-31T06:57:20;97961.59;;;16.13;100.00
43804;BME280;29430;52.924;-2.388;2023-07-31T07:02:12;97938.81;;;16.17;100.00
43804;BME280;29430;52.924;-2.388;2023-07-31T07:07:04;97935.72;;;16.24;100.00
43804;BME280;29430;52.924;-2.388;2023-07-31T07:11:55;97926.38;;;16.25;100.00
43804;BME280;29430;52.924;-2.388;2023-07-31T07:16:51;97909.59;;;16.32;100.00
43804;BME280;29430;52.924;-2.388;2023-07-31T07:21:42;97916.06;;;16.36;100.00
43804;BME280;29430;52.924;-2.388;2023-07-31T07:26:34;97918.13;;;16.44;100.00
43804;BME280;29430;52.924;-2.388;2023-07-31T07:31:26;97927.66;;;16.46;100.00
43804;BME280;29430;52.924;-2.388;2023-07-31T07:36:18;97942.16;;;16.47;100.00
43804;BME280;29430;52.924;-2.388;2023-07-31T07:41:09;97935.34;;;16.44;100.00
43804;BME280;29430;52.924;-2.388;2023-07-31T07:46:01;97965.16;;;16.46;100.00
43804;BME280;29430;52.924;-2.388;2023-07-31T07:50:53;97971.53;;;16.41;100.00
43804;BME280;29430;52.924;-2.388;2023-07-31T07:55:45;97948.84;;;16.41;100.00
43804;BME280;29430;52.924;-2.388;2023-07-31T08:00:37;97936.75;;;16.42;100.00
43804;BME280;29430;52.924;-2.388;2023-07-31T08:05:29;97939.19;;;16.43;100.00
43804;BME280;29430;52.924;-2.388;2023-07-31T08:10:23;97949.34;;;16.43;100.00
43804;BME280;29430;52.924;-2.388;2023-07-31T08:15:15;97932.13;;;16.42;100.00
43804;BME280;29430;52.924;-2.388;2023-07-31T08:20:07;97909.09;;;16.43;100.00
43804;BME280;29430;52.924;-2.388;2023-07-31T08:24:59;97928.47;;;16.47;100.00
43804;BME280;29430;52.924;-2.388;2023-07-31T08:29:52;97911.75;;;16.49;100.00
43804;BME280;29430;52.924;-2.388;2023-07-31T08:34:43;97934.25;;;16.45;100.00
43804;BME280;29430;52.924;-2.388;2023-07-31T08:39:35;97913.47;;;16.44;100.00
43804;BME280;29430;52.924;-2.388;2023-07-31T08:44:31;97917.22;;;16.49;100.00
43804;BME280;29430;52.924;-2.388;2023-07-31T08:49:24;97911.06;;;16.57;100.00
43804;BME280;29430;52.924;-2.388;2023-07-31T08:54:16;97933.78;;;16.71;100.00
43804;BME280;29430;52.924;-2.388;2023-07-31T08:59:08;97929.03;;;16.77;100.00
43804;BME280;29430;52.924;-2.388;2023-07-31T09:04:01;97916.38;;;16.81;100.00
43804;BME280;29430;52.924;-2.388;2023-07-31T09:08:55;97898.81;;;16.82;100.00
43804;BME280;29430;52.924;-2.388;2023-07-31T09:13:48;97903.41;;;16.87;100.00
43804;BME280;29430;52.924;-2.388;2023-07-31T09:18:53;97896.63;;;16.98;100.00
43804;BME280;29430;52.924;-2.388;2023-07-31T09:23:47;97886.34;;;17.17;100.00
43804;BME280;29430;52.924;-2.388;2023-07-31T09:28:42;97879.91;;;17.36;99.84
43804;BME280;29430;52.924;-2.388;2023-07-31T09:33:54;97887.81;;;17.38;97.30
43804;BME280;29430;52.924;-2.388;2023-07-31T09:38:46;97903.97;;;17.39;97.89
43804;BME280;29430;52.924;-2.388;2023-07-31T09:43:37;97926.31;;;17.32;96.94
43804;BME280;29430;52.924;-2.388;2023-07-31T09:48:29;97942.97;;;17.22;97.30
43804;BME280;29430;52.924;-2.388;2023-07-31T09:53:28;97933.81;;;17.13;97.92
43804;BME280;29430;52.924;-2.388;2023-07-31T09:58:24;97949.25;;;16.95;96.69
43804;BME280;29430;52.924;-2.388;2023-07-31T10:03:18;97960.09;;;16.86;97.26
43804;BME280;29430;52.924;-2.388;2023-07-31T10:08:13;97933.09;;;16.79;97.97
43804;BME280;29430;52.924;-2.388;2023-07-31T10:13:06;97904.19;;;16.73;98.50
43804;BME280;29430;52.924;-2.388;2023-07-31T10:17:58;97883.50;;;16.67;98.30
43804;BME280;29430;52.924;-2.388;2023-07-31T10:22:51;97899.94;;;16.67;98.74
43804;BME280;29430;52.924;-2.388;2023-07-31T10:27:43;97878.94;;;16.62;98.50
43804;BME280;29430;52.924;-2.388;2023-07-31T10:32:35;97883.38;;;16.58;98.37
43804;BME280;29430;52.924;-2.388;2023-07-31T10:37:36;97891.91;;;16.57;98.11
43804;BME280;29430;52.924;-2.388;2023-07-31T10:42:30;97919.47;;;16.60;99.09
43804;BME280;29430;52.924;-2.388;2023-07-31T10:47:23;97911.25;;;16.60;98.62
43804;BME280;29430;52.924;-2.388;2023-07-31T10:52:19;97916.41;;;16.62;100.00
43804;BME280;29430;52.924;-2.388;2023-07-31T10:57:21;97925.78;;;16.61;100.00
43804;BME280;29430;52.924;-2.388;2023-07-31T11:02:26;97941.25;;;16.52;100.00
43804;BME280;29430;52.924;-2.388;2023-07-31T11:07:21;97946.91;;;16.41;100.00
43804;BME280;29430;52.924;-2.388;2023-07-31T11:12:12;97935.53;;;16.34;100.00
43804;BME280;29430;52.924;-2.388;2023-07-31T11:17:07;97926.91;;;16.27;100.00
43804;BME280;29430;52.924;-2.388;2023-07-31T11:21:59;97923.44;;;16.21;100.00
43804;BME280;29430;52.924;-2.388;2023-07-31T11:26:52;97936.91;;;16.18;100.00
43804;BME280;29430;52.924;-2.388;2023-07-31T11:31:44;97906.88;;;16.13;100.00
43804;BME280;29430;52.924;-2.388;2023-07-31T11:36:36;97899.28;;;16.09;100.00
43804;BME280;29430;52.924;-2.388;2023-07-31T11:41:28;97886.94;;;16.12;100.00
43804;BME280;29430;52.924;-2.388;2023-07-31T11:46:20;97890.91;;;16.20;100.00
43804;BME280;29430;52.924;-2.388;2023-07-31T11:51:13;97824.34;;;16.24;100.00
43804;BME280;29430;52.924;-2.388;2023-07-31T11:56:07;97849.09;;;16.33;100.00
43804;BME280;29430;52.924;-2.388;2023-07-31T12:01:00;97899.88;;;16.39;100.00
43804;BME280;29430;52.924;-2.388;2023-07-31T12:05:53;97859.81;;;16.29;100.00
43804;BME280;29430;52.924;-2.388;2023-07-31T12:10:45;97878.56;;;16.22;100.00
43804;BME280;29430;52.924;-2.388;2023-07-31T12:15:43;97862.03;;;16.14;100.00
43804;BME280;29430;52.924;-2.388;2023-07-31T12:20:40;97878.00;;;16.06;100.00
43804;BME280;29430;52.924;-2.388;2023-07-31T12:25:33;97882.47;;;16.02;100.00
43804;BME280;29430;52.924;-2.388;2023-07-31T12:30:45;97887.47;;;15.95;100.00
43804;BME280;29430;52.924;-2.388;2023-07-31T12:35:38;97885.13;;;15.88;100.00
43804;BME280;29430;52.924;-2.388;2023-07-31T12:40:30;97871.25;;;15.85;100.00
43804;BME280;29430;52.924;-2.388;2023-07-31T12:45:23;97840.75;;;15.78;100.00
43804;BME280;29430;52.924;-2.388;2023-07-31T12:50:15;97849.47;;;15.80;100.00
43804;BME280;29430;52.924;-2.388;2023-07-31T12:55:07;97852.69;;;15.82;100.00
43804;BME280;29430;52.924;-2.388;2023-07-31T12:59:59;97866.91;;;15.84;100.00
43804;BME280;29430;52.924;-2.388;2023-07-31T13:04:50;97849.38;;;15.85;100.00
43804;BME280;29430;52.924;-2.388;2023-07-31T13:09:42;97858.09;;;15.87;100.00
43804;BME280;29430;52.924;-2.388;2023-07-31T13:14:34;97839.25;;;15.85;100.00
43804;BME280;29430;52.924;-2.388;2023-07-31T13:19:26;97843.00;;;15.89;100.00
43804;BME280;29430;52.924;-2.388;2023-07-31T13:24:17;97841.09;;;15.90;100.00
43804;BME280;29430;52.924;-2.388;2023-07-31T13:29:09;97832.06;;;15.89;100.00
43804;BME280;29430;52.924;-2.388;2023-07-31T13:34:02;97809.88;;;15.91;100.00
43804;BME280;29430;52.924;-2.388;2023-07-31T13:38:55;97808.00;;;15.91;100.00
43804;BME280;29430;52.924;-2.388;2023-07-31T13:43:48;97800.59;;;15.92;100.00
43804;BME280;29430;52.924;-2.388;2023-07-31T13:48:39;97796.34;;;16.00;100.00
43804;BME280;29430;52.924;-2.388;2023-07-31T13:53:31;97773.06;;;16.02;100.00
43804;BME280;29430;52.924;-2.388;2023-07-31T13:58:23;97794.25;;;16.10;100.00
43804;BME280;29430;52.924;-2.388;2023-07-31T14:03:15;97773.09;;;16.16;100.00
43804;BME280;29430;52.924;-2.388;2023-07-31T14:08:06;97777.13;;;16.19;100.00
43804;BME280;29430;52.924;-2.388;2023-07-31T14:12:58;97775.13;;;16.24;100.00
43804;BME280;29430;52.924;-2.388;2023-07-31T14:17:50;97782.81;;;16.22;100.00
43804;BME280;29430;52.924;-2.388;2023-07-31T14:22:42;97769.66;;;16.24;100.00
43804;BME280;29430;52.924;-2.388;2023-07-31T14:27:34;97777.25;;;16.27;100.00
43804;BME280;29430;52.924;-2.388;2023-07-31T14:32:25;97784.94;;;16.25;100.00
43804;BME280;29430;52.924;-2.388;2023-07-31T14:37:17;97777.75;;;16.29;100.00
43804;BME280;29430;52.924;-2.388;2023-07-31T14:42:09;97779.19;;;16.27;100.00
43804;BME280;29430;52.924;-2.388;2023-07-31T14:47:01;97766.72;;;16.21;100.00
43804;BME280;29430;52.924;-2.388;2023-07-31T14:51:52;97762.66;;;16.18;100.00
43804;BME280;29430;52.924;-2.388;2023-07-31T14:56:44;97750.38;;;16.16;100.00
43804;BME280;29430;52.924;-2.388;2023-07-31T15:01:36;97756.16;;;16.14;100.00
43804;BME280;29430;52.924;-2.388;2023-07-31T15:06:28;97758.81;;;16.19;100.00
43804;BME280;29430;52.924;-2.388;2023-07-31T15:11:20;97764.06;;;16.29;100.00
43804;BME280;29430;52.924;-2.388;2023-07-31T15:16:12;97756.16;;;16.42;100.00
43804;BME280;29430;52.924;-2.388;2023-07-31T15:21:04;97750.19;;;16.54;100.00
43804;BME280;29430;52.924;-2.388;2023-07-31T15:25:58;97741.66;;;16.69;100.00
43804;BME280;29430;52.924;-2.388;2023-07-31T15:30:50;97746.28;;;16.82;100.00
43804;BME280;29430;52.924;-2.388;2023-07-31T15:35:41;97754.69;;;17.00;100.00
43804;BME280;29430;52.924;-2.388;2023-07-31T15:40:34;97757.41;;;17.14;99.13
43804;BME280;29430;52.924;-2.388;2023-07-31T15:45:26;97744.41;;;17.20;97.33
43804;BME280;29430;52.924;-2.388;2023-07-31T15:50:18;97740.59;;;17.29;97.97
43804;BME280;29430;52.924;-2.388;2023-07-31T15:55:10;97732.63;;;17.42;95.04
43804;BME280;29430;52.924;-2.388;2023-07-31T16:00:02;97730.44;;;17.52;94.89
43804;BME280;29430;52.924;-2.388;2023-07-31T16:04:54;97717.13;;;17.60;92.60
43804;BME280;29430;52.924;-2.388;2023-07-31T16:09:46;97717.47;;;17.67;92.97
43804;BME280;29430;52.924;-2.388;2023-07-31T16:14:37;97707.50;;;17.71;93.00
43804;BME280;29430;52.924;-2.388;2023-07-31T16:19:29;97717.47;;;17.67;90.36
43804;BME280;29430;52.924;-2.388;2023-07-31T16:24:21;97715.84;;;17.66;91.17
43804;BME280;29430;52.924;-2.388;2023-07-31T16:29:13;97695.03;;;17.65;91.85
43804;BME280;29430;52.924;-2.388;2023-07-31T16:34:04;97696.66;;;17.66;90.39
43804;BME280;29430;52.924;-2.388;2023-07-31T16:38:56;97691.81;;;17.63;90.22
43804;BME280;29430;52.924;-2.388;2023-07-31T16:43:48;97696.97;;;17.64;91.05
43804;BME280;29430;52.924;-2.388;2023-07-31T16:48:39;97686.34;;;17.71;89.04
43804;BME280;29430;52.924;-2.388;2023-07-31T16:53:31;97689.94;;;17.72;86.11
43804;BME280;29430;52.924;-2.388;2023-07-31T16:58:23;97672.47;;;17.68;86.18
43804;BME280;29430;52.924;-2.388;2023-07-31T17:03:14;97672.97;;;17.70;85.99
43804;BME280;29430;52.924;-2.388;2023-07-31T17:08:07;97676.00;;;17.68;86.16
43804;BME280;29430;52.924;-2.388;2023-07-31T17:12:58;97674.22;;;17.64;86.35
43804;BME280;29430;52.924;-2.388;2023-07-31T17:17:52;97674.69;;;17.57;87.32
43804;BME280;29430;52.924;-2.388;2023-07-31T17:22:47;97675.13;;;17.50;87.91
43804;BME280;29430;52.924;-2.388;2023-07-31T17:27:40;97677.13;;;17.36;86.24
43804;BME280;29430;52.924;-2.388;2023-07-31T17:32:31;97678.19;;;17.26;87.37
43804;BME280;29430;52.924;-2.388;2023-07-31T17:37:23;97679.13;;;17.22;87.32
43804;BME280;29430;52.924;-2.388;2023-07-31T17:42:15;97681.19;;;17.16;87.71
43804;BME280;29430;52.924;-2.388;2023-07-31T17:47:06;97689.22;;;17.12;87.56
43804;BME280;29430;52.924;-2.388;2023-07-31T17:51:58;97685.47;;;17.08;88.05
43804;BME280;29430;52.924;-2.388;2023-07-31T17:56:52;97677.38;;;17.03;87.68
43804;BME280;29430;52.924;-2.388;2023-07-31T18:01:44;97671.72;;;16.99;87.95
43804;BME280;29430;52.924;-2.388;2023-07-31T18:06:36;97670.72;;;16.95;88.34
43804;BME280;29430;52.924;-2.388;2023-07-31T18:11:29;97666.00;;;16.87;87.72
43804;BME280;29430;52.924;-2.388;2023-07-31T18:16:21;97673.00;;;16.79;88.17
43804;BME280;29430;52.924;-2.388;2023-07-31T18:21:13;97678.56;;;16.74;88.66
43804;BME280;29430;52.924;-2.388;2023-07-31T18:26:05;97671.41;;;16.64;88.83
43804;BME280;29430;52.924;-2.388;2023-07-31T18:30:57;97682.66;;;16.63;89.47
43804;BME280;29430;52.924;-2.388;2023-07-31T18:35:49;97680.44;;;16.51;90.21
43804;BME280;29430;52.924;-2.388;2023-07-31T18:40:41;97674.06;;;16.42;91.01
43804;BME280;29430;52.924;-2.388;2023-07-31T18:45:33;97669.50;;;16.37;92.77
43804;BME280;29430;52.924;-2.388;2023-07-31T18:50:25;97675.91;;;16.33;93.47
43804;BME280;29430;52.924;-2.388;2023-07-31T18:55:16;97671.88;;;16.30;93.56
43804;BME280;29430;52.924;-2.388;2023-07-31T19:00:09;97672.78;;;16.25;94.22
43804;BME280;29430;52.924;-2.388;2023-07-31T19:05:02;97664.38;;;16.22;95.05
43804;BME280;29430;52.924;-2.388;2023-07-31T19:09:54;97674.31;;;16.18;94.58
43804;BME280;29430;52.924;-2.388;2023-07-31T19:15:06;97662.16;;;16.10;94.91
43804;BME280;29430;52.924;-2.388;2023-07-31T19:19:57;97653.06;;;16.01;95.29
43804;BME280;29430;52.924;-2.388;2023-07-31T19:24:49;97660.03;;;15.93;94.98
43804;BME280;29430;52.924;-2.388;2023-07-31T19:29:41;97671.06;;;15.88;95.76
43804;BME280;29430;52.924;-2.388;2023-07-31T19:34:32;97669.53;;;15.82;96.54
43804;BME280;29430;52.924;-2.388;2023-07-31T19:39:24;97672.06;;;15.78;96.89
43804;BME280;29430;52.924;-2.388;2023-07-31T19:44:16;97669.53;;;15.68;98.62
43804;BME280;29430;52.924;-2.388;2023-07-31T19:49:08;97682.34;;;15.53;100.00
43804;BME280;29430;52.924;-2.388;2023-07-31T19:54:00;97678.38;;;15.46;100.00
43804;BME280;29430;52.924;-2.388;2023-07-31T19:58:52;97670.38;;;15.35;100.00
43804;BME280;29430;52.924;-2.388;2023-07-31T20:03:44;97663.69;;;15.28;100.00
43804;BME280;29430;52.924;-2.388;2023-07-31T20:08:35;97664.03;;;15.21;100.00
43804;BME280;29430;52.924;-2.388;2023-07-31T20:13:28;97658.38;;;15.17;100.00
43804;BME280;29430;52.924;-2.388;2023-07-31T20:18:20;97657.03;;;15.15;100.00
43804;BME280;29430;52.924;-2.388;2023-07-31T20:23:12;97649.75;;;15.10;100.00
43804;BME280;29430;52.924;-2.388;2023-07-31T20:28:04;97657.22;;;15.04;100.00
43804;BME280;29430;52.924;-2.388;2023-07-31T20:32:55;97649.94;;;15.00;100.00
43804;BME280;29430;52.924;-2.388;2023-07-31T20:37:48;97641.09;;;14.89;100.00
43804;BME280;29430;52.924;-2.388;2023-07-31T20:42:40;97651.78;;;14.85;100.00
43804;BME280;29430;52.924;-2.388;2023-07-31T20:47:31;97645.06;;;14.78;100.00
43804;BME280;29430;52.924;-2.388;2023-07-31T20:52:23;97652.25;;;14.74;100.00
43804;BME280;29430;52.924;-2.388;2023-07-31T20:57:15;97647.69;;;14.69;100.00
43804;BME280;29430;52.924;-2.388;2023-07-31T21:02:08;97646.34;;;14.66;100.00
43804;BME280;29430;52.924;-2.388;2023-07-31T21:07:00;97643.13;;;14.59;100.00
43804;BME280;29430;52.924;-2.388;2023-07-31T21:11:52;97642.91;;;14.56;100.00
43804;BME280;29430;52.924;-2.388;2023-07-31T21:16:44;97641.28;;;14.55;100.00
43804;BME280;29430;52.924;-2.388;2023-07-31T21:21:35;97628.81;;;14.48;100.00
43804;BME280;29430;52.924;-2.388;2023-07-31T21:26:27;97634.06;;;14.45;100.00
43804;BME280;29430;52.924;-2.388;2023-07-31T21:31:19;97639.03;;;14.43;100.00
43804;BME280;29430;52.924;-2.388;2023-07-31T21:36:11;97647.19;;;14.43;100.00
43804;BME280;29430;52.924;-2.388;2023-07-31T21:41:02;97647.19;;;14.43;100.00
43804;BME280;29430;52.924;-2.388;2023-07-31T21:45:54;97636.28;;;14.43;100.00
43804;BME280;29430;52.924;-2.388;2023-07-31T21:50:46;97636.28;;;14.43;100.00
43804;BME280;29430;52.924;-2.388;2023-07-31T21:55:38;97635.16;;;14.44;100.00
43804;BME280;29430;52.924;-2.388;2023-07-31T22:00:29;97629.22;;;14.42;100.00
43804;BME280;29430;52.924;-2.388;2023-07-31T22:05:21;97625.38;;;14.43;100.00
43804;BME280;29430;52.924;-2.388;2023-07-31T22:10:13;97614.19;;;14.44;100.00
43804;BME280;29430;52.924;-2.388;2023-07-31T22:15:05;97616.63;;;14.46;100.00
43804;BME280;29430;52.924;-2.388;2023-07-31T22:19:57;97623.47;;;14.43;100.00
43804;BME280;29430;52.924;-2.388;2023-07-31T22:24:48;97605.75;;;14.41;100.00
43804;BME280;29430;52.924;-2.388;2023-07-31T22:29:40;97607.97;;;14.39;100.00
43804;BME280;29430;52.924;-2.388;2023-07-31T22:34:33;97616.25;;;14.33;100.00
43804;BME280;29430;52.924;-2.388;2023-07-31T22:39:27;97611.38;;;14.30;100.00
43804;BME280;29430;52.924;-2.388;2023-07-31T22:44:19;97615.50;;;14.28;100.00
43804;BME280;29430;52.924;-2.388;2023-07-31T22:49:11;97608.47;;;14.22;100.00
43804;BME280;29430;52.924;-2.388;2023-07-31T22:54:03;97619.69;;;14.20;100.00
43804;BME280;29430;52.924;-2.388;2023-07-31T22:58:55;97617.03;;;14.15;100.00
43804;BME280;29430;52.924;-2.388;2023-07-31T23:03:47;97627.41;;;14.13;100.00
43804;BME280;29430;52.924;-2.388;2023-07-31T23:08:39;97613.56;;;14.09;100.00
43804;BME280;29430;52.924;-2.388;2023-07-31T23:13:32;97625.50;;;14.13;100.00
43804;BME280;29430;52.924;-2.388;2023-07-31T23:18:24;97634.78;;;14.12;100.00
43804;BME280;29430;52.924;-2.388;2023-07-31T23:23:16;97629.84;;;14.14;100.00
43804;BME280;29430;52.924;-2.388;2023-07-31T23:28:07;97618.63;;;14.16;100.00
43804;BME280;29430;52.924;-2.388;2023-07-31T23:32:59;97617.03;;;14.15;100.00
43804;BME280;29430;52.924;-2.388;2023-07-31T23:37:51;97615.41;;;14.14;100.00
43804;BME280;29430;52.924;-2.388;2023-07-31T23:42:43;97618.13;;;14.14;100.00
43804;BME280;29430;52.924;-2.388;2023-07-31T23:47:35;97619.47;;;14.17;100.00
43804;BME280;29430;52.924;-2.388;2023-07-31T23:52:26;97620.84;;;14.14;100.00
43804;BME280;29430;52.924;-2.388;2023-07-31T23:57:18;97618.41;;;14.12;100.00
